sensor_id;sensor_type;location;lat;lon;timestamp;P1;durP1;ratioP1;P2;durP2;ratioP2
10801;SDS011;5453;50.852;7.102;2022-08-05T00:02:15;5.20;;;2.03;;
10801;SDS011;5453;50.852;7.102;2022-08-05T00:04:49;5.22;;;2.17;;
10801;SDS011;5453;50.852;7.102;2022-08-05T00:07:21;5.03;;;2.20;;
10801;SDS011;5453;50.852;7.102;2022-08-05T00:09:53;3.20;;;2.00;;
10801;SDS011;5453;50.852;7.102;2022-08-05T00:12:25;3.72;;;2.20;;
10801;SDS011;5453;50.852;7.102;2022-08-05T00:14:58;4.60;;;2.42;;
10801;SDS011;5453;50.852;7.102;2022-08-05T00:17:30;5.05;;;2.10;;
10801;SDS011;5453;50.852;7.102;2022-08-05T00:20:04;3.28;;;2.20;;
10801;SDS011;5453;50.852;7.102;2022-08-05T00:22:37;3.50;;;2.28;;
10801;SDS011;5453;50.852;7.102;2022-08-05T00:25:09;5.82;;;2.47;;
10801;SDS011;5453;50.852;7.102;2022-08-05T00:27:42;3.60;;;2.42;;
10801;SDS011;5453;50.852;7.102;2022-08-05T00:30:14;3.30;;;2.13;;
10801;SDS011;5453;50.852;7.102;2022-08-05T00:32:46;4.97;;;2.42;;
10801;SDS011;5453;50.852;7.102;2022-08-05T00:35:20;7.32;;;2.15;;
10801;SDS011;5453;50.852;7.102;2022-08-05T00:37:52;3.33;;;2.35;;
10801;SDS011;5453;50.852;7.102;2022-08-05T00:40:25;5.32;;;2.53;;
10801;SDS011;5453;50.852;7.102;2022-08-05T00:42:58;3.95;;;2.03;;
10801;SDS011;5453;50.852;7.102;2022-08-05T00:45:32;3.50;;;2.22;;
10801;SDS011;5453;50.852;7.102;2022-08-05T00:48:05;5.97;;;2.13;;
10801;SDS011;5453;50.852;7.102;2022-08-05T00:50:40;5.03;;;2.50;;
10801;SDS011;5453;50.852;7.102;2022-08-05T00:53:16;3.40;;;2.40;;
10801;SDS011;5453;50.852;7.102;2022-08-05T00:55:50;5.13;;;2.28;;
10801;SDS011;5453;50.852;7.102;2022-08-05T00:58:22;3.50;;;2.00;;
10801;SDS011;5453;50.852;7.102;2022-08-05T01:00:54;5.55;;;2.30;;
10801;SDS011;5453;50.852;7.102;2022-08-05T01:03:26;4.78;;;2.75;;
10801;SDS011;5453;50.852;7.102;2022-08-05T01:06:00;4.28;;;2.47;;
10801;SDS011;5453;50.852;7.102;2022-08-05T01:08:33;4.47;;;2.22;;
10801;SDS011;5453;50.852;7.102;2022-08-05T01:11:07;5.55;;;2.47;;
10801;SDS011;5453;50.852;7.102;2022-08-05T01:13:47;3.47;;;2.33;;
10801;SDS011;5453;50.852;7.102;2022-08-05T01:16:32;3.85;;;2.55;;
10801;SDS011;5453;50.852;7.102;2022-08-05T01:19:14;3.97;;;2.38;;
10801;SDS011;5453;50.852;7.102;2022-08-05T01:25:07;4.95;;;2.70;;
10801;SDS011;5453;50.852;7.102;2022-08-05T01:28:23;3.80;;;2.20;;
10801;SDS011;5453;50.852;7.102;2022-08-05T01:30:58;3.45;;;2.13;;
10801;SDS011;5453;50.852;7.102;2022-08-05T01:33:37;4.57;;;2.13;;
10801;SDS011;5453;50.852;7.102;2022-08-05T01:36:16;4.05;;;2.03;;
10801;SDS011;5453;50.852;7.102;2022-08-05T01:38:50;3.85;;;2.03;;
10801;SDS011;5453;50.852;7.102;2022-08-05T01:41:23;4.72;;;2.30;;
10801;SDS011;5453;50.852;7.102;2022-08-05T01:43:58;4.03;;;2.40;;
10801;SDS011;5453;50.852;7.102;2022-08-05T01:46:32;3.83;;;2.25;;
10801;SDS011;5453;50.852;7.102;2022-08-05T01:49:06;4.72;;;2.35;;
10801;SDS011;5453;50.852;7.102;2022-08-05T01:51:41;5.22;;;2.55;;
10801;SDS011;5453;50.852;7.102;2022-08-05T01:54:13;4.78;;;2.33;;
10801;SDS011;5453;50.852;7.102;2022-08-05T01:56:50;4.03;;;2.42;;
10801;SDS011;5453;50.852;7.102;2022-08-05T01:59:25;3.58;;;2.25;;
10801;SDS011;5453;50.852;7.102;2022-08-05T02:01:59;4.45;;;2.88;;
10801;SDS011;5453;50.852;7.102;2022-08-05T02:04:33;3.45;;;2.20;;
10801;SDS011;5453;50.852;7.102;2022-08-05T02:07:08;4.03;;;2.47;;
10801;SDS011;5453;50.852;7.102;2022-08-05T02:09:40;3.78;;;2.35;;
10801;SDS011;5453;50.852;7.102;2022-08-05T02:12:14;3.63;;;2.08;;
10801;SDS011;5453;50.852;7.102;2022-08-05T02:14:56;5.97;;;2.55;;
10801;SDS011;5453;50.852;7.102;2022-08-05T02:20:10;3.95;;;2.10;;
10801;SDS011;5453;50.852;7.102;2022-08-05T02:22:54;4.60;;;2.25;;
10801;SDS011;5453;50.852;7.102;2022-08-05T02:25:30;3.35;;;2.40;;
10801;SDS011;5453;50.852;7.102;2022-08-05T02:28:05;7.43;;;2.95;;
10801;SDS011;5453;50.852;7.102;2022-08-05T02:30:43;6.95;;;2.53;;
10801;SDS011;5453;50.852;7.102;2022-08-05T02:33:24;3.42;;;2.33;;
10801;SDS011;5453;50.852;7.102;2022-08-05T02:35:57;4.65;;;2.38;;
10801;SDS011;5453;50.852;7.102;2022-08-05T02:38:30;4.95;;;2.10;;
10801;SDS011;5453;50.852;7.102;2022-08-05T02:41:04;4.63;;;2.45;;
10801;SDS011;5453;50.852;7.102;2022-08-05T02:43:39;3.92;;;2.45;;
10801;SDS011;5453;50.852;7.102;2022-08-05T02:46:13;6.35;;;2.45;;
10801;SDS011;5453;50.852;7.102;2022-08-05T02:48:47;5.90;;;2.45;;
10801;SDS011;5453;50.852;7.102;2022-08-05T02:51:21;5.10;;;2.47;;
10801;SDS011;5453;50.852;7.102;2022-08-05T02:53:54;5.72;;;3.05;;
10801;SDS011;5453;50.852;7.102;2022-08-05T02:56:26;8.40;;;4.47;;
10801;SDS011;5453;50.852;7.102;2022-08-05T02:58:59;7.55;;;4.18;;
10801;SDS011;5453;50.852;7.102;2022-08-05T03:01:33;5.22;;;3.40;;
10801;SDS011;5453;50.852;7.102;2022-08-05T03:04:10;5.05;;;2.90;;
10801;SDS011;5453;50.852;7.102;2022-08-05T03:06:45;6.13;;;3.42;;
10801;SDS011;5453;50.852;7.102;2022-08-05T03:09:17;6.45;;;3.58;;
10801;SDS011;5453;50.852;7.102;2022-08-05T03:11:50;6.07;;;3.17;;
10801;SDS011;5453;50.852;7.102;2022-08-05T03:14:22;8.13;;;2.90;;
10801;SDS011;5453;50.852;7.102;2022-08-05T03:16:57;5.10;;;2.53;;
10801;SDS011;5453;50.852;7.102;2022-08-05T03:19:29;5.50;;;2.63;;
10801;SDS011;5453;50.852;7.102;2022-08-05T03:22:01;6.85;;;3.60;;
10801;SDS011;5453;50.852;7.102;2022-08-05T03:24:34;4.22;;;2.80;;
10801;SDS011;5453;50.852;7.102;2022-08-05T03:27:06;6.43;;;2.92;;
10801;SDS011;5453;50.852;7.102;2022-08-05T03:29:38;6.15;;;2.80;;
10801;SDS011;5453;50.852;7.102;2022-08-05T03:32:12;4.55;;;2.85;;
10801;SDS011;5453;50.852;7.102;2022-08-05T03:34:46;6.68;;;3.08;;
10801;SDS011;5453;50.852;7.102;2022-08-05T03:37:18;5.03;;;3.22;;
10801;SDS011;5453;50.852;7.102;2022-08-05T03:39:53;5.82;;;3.10;;
10801;SDS011;5453;50.852;7.102;2022-08-05T03:42:27;7.05;;;2.88;;
10801;SDS011;5453;50.852;7.102;2022-08-05T03:44:59;6.53;;;3.08;;
10801;SDS011;5453;50.852;7.102;2022-08-05T03:47:32;6.90;;;3.50;;
10801;SDS011;5453;50.852;7.102;2022-08-05T03:50:04;6.80;;;3.35;;
10801;SDS011;5453;50.852;7.102;2022-08-05T03:52:40;7.03;;;3.55;;
10801;SDS011;5453;50.852;7.102;2022-08-05T03:55:21;4.93;;;2.85;;
10801;SDS011;5453;50.852;7.102;2022-08-05T03:57:58;8.52;;;3.15;;
10801;SDS011;5453;50.852;7.102;2022-08-05T04:00:32;6.65;;;3.85;;
10801;SDS011;5453;50.852;7.102;2022-08-05T04:03:06;7.28;;;3.83;;
10801;SDS011;5453;50.852;7.102;2022-08-05T04:05:39;6.90;;;3.45;;
10801;SDS011;5453;50.852;7.102;2022-08-05T04:08:13;5.95;;;3.13;;
10801;SDS011;5453;50.852;7.102;2022-08-05T04:10:46;7.05;;;3.15;;
10801;SDS011;5453;50.852;7.102;2022-08-05T04:13:19;7.68;;;4.25;;
10801;SDS011;5453;50.852;7.102;2022-08-05T04:15:52;10.52;;;4.68;;
10801;SDS011;5453;50.852;7.102;2022-08-05T04:18:25;7.10;;;4.32;;
10801;SDS011;5453;50.852;7.102;2022-08-05T04:23:31;10.23;;;5.78;;
10801;SDS011;5453;50.852;7.102;2022-08-05T04:26:05;8.73;;;5.28;;
10801;SDS011;5453;50.852;7.102;2022-08-05T04:28:37;10.57;;;5.70;;
10801;SDS011;5453;50.852;7.102;2022-08-05T04:31:09;10.05;;;5.63;;
10801;SDS011;5453;50.852;7.102;2022-08-05T04:33:43;12.50;;;6.55;;
10801;SDS011;5453;50.852;7.102;2022-08-05T04:36:15;9.63;;;5.10;;
10801;SDS011;5453;50.852;7.102;2022-08-05T04:38:47;9.82;;;4.95;;
10801;SDS011;5453;50.852;7.102;2022-08-05T04:41:19;10.20;;;5.43;;
10801;SDS011;5453;50.852;7.102;2022-08-05T04:43:51;8.18;;;4.60;;
10801;SDS011;5453;50.852;7.102;2022-08-05T04:46:23;8.05;;;4.80;;
10801;SDS011;5453;50.852;7.102;2022-08-05T04:48:57;8.63;;;4.60;;
10801;SDS011;5453;50.852;7.102;2022-08-05T04:51:29;10.52;;;5.78;;
10801;SDS011;5453;50.852;7.102;2022-08-05T04:54:01;9.85;;;4.95;;
10801;SDS011;5453;50.852;7.102;2022-08-05T04:56:33;8.18;;;4.63;;
10801;SDS011;5453;50.852;7.102;2022-08-05T04:59:06;7.97;;;4.68;;
10801;SDS011;5453;50.852;7.102;2022-08-05T05:01:38;11.73;;;5.90;;
10801;SDS011;5453;50.852;7.102;2022-08-05T05:04:11;11.63;;;6.25;;
10801;SDS011;5453;50.852;7.102;2022-08-05T05:06:43;10.45;;;6.25;;
10801;SDS011;5453;50.852;7.102;2022-08-05T05:09:15;9.25;;;5.07;;
10801;SDS011;5453;50.852;7.102;2022-08-05T05:11:47;9.70;;;5.38;;
10801;SDS011;5453;50.852;7.102;2022-08-05T05:14:19;10.48;;;6.03;;
10801;SDS011;5453;50.852;7.102;2022-08-05T05:16:51;12.43;;;6.55;;
10801;SDS011;5453;50.852;7.102;2022-08-05T05:19:25;13.10;;;6.05;;
10801;SDS011;5453;50.852;7.102;2022-08-05T05:21:57;15.98;;;7.40;;
10801;SDS011;5453;50.852;7.102;2022-08-05T05:24:29;14.23;;;6.82;;
10801;SDS011;5453;50.852;7.102;2022-08-05T05:27:01;15.45;;;8.30;;
10801;SDS011;5453;50.852;7.102;2022-08-05T05:29:33;10.52;;;5.95;;
10801;SDS011;5453;50.852;7.102;2022-08-05T05:32:05;12.80;;;6.10;;
10801;SDS011;5453;50.852;7.102;2022-08-05T05:34:39;9.43;;;5.53;;
10801;SDS011;5453;50.852;7.102;2022-08-05T05:37:11;11.57;;;6.00;;
10801;SDS011;5453;50.852;7.102;2022-08-05T05:39:44;13.57;;;7.93;;
10801;SDS011;5453;50.852;7.102;2022-08-05T05:42:16;17.73;;;9.43;;
10801;SDS011;5453;50.852;7.102;2022-08-05T05:44:48;16.17;;;7.70;;
10801;SDS011;5453;50.852;7.102;2022-08-05T05:47:20;14.50;;;8.23;;
10801;SDS011;5453;50.852;7.102;2022-08-05T05:49:53;14.25;;;7.93;;
10801;SDS011;5453;50.852;7.102;2022-08-05T05:52:25;15.90;;;8.60;;
10801;SDS011;5453;50.852;7.102;2022-08-05T05:54:58;16.45;;;8.20;;
10801;SDS011;5453;50.852;7.102;2022-08-05T05:57:30;14.30;;;8.15;;
10801;SDS011;5453;50.852;7.102;2022-08-05T06:00:02;14.27;;;8.13;;
10801;SDS011;5453;50.852;7.102;2022-08-05T06:02:42;16.08;;;8.35;;
10801;SDS011;5453;50.852;7.102;2022-08-05T06:10:22;17.17;;;8.95;;
10801;SDS011;5453;50.852;7.102;2022-08-05T06:12:54;17.83;;;8.95;;
10801;SDS011;5453;50.852;7.102;2022-08-05T06:15:26;17.92;;;9.25;;
10801;SDS011;5453;50.852;7.102;2022-08-05T06:17:58;16.88;;;8.98;;
10801;SDS011;5453;50.852;7.102;2022-08-05T06:20:32;20.45;;;10.13;;
10801;SDS011;5453;50.852;7.102;2022-08-05T06:23:04;18.77;;;9.93;;
10801;SDS011;5453;50.852;7.102;2022-08-05T06:25:36;14.65;;;7.50;;
10801;SDS011;5453;50.852;7.102;2022-08-05T06:28:08;19.75;;;9.77;;
10801;SDS011;5453;50.852;7.102;2022-08-05T06:30:40;21.77;;;11.65;;
10801;SDS011;5453;50.852;7.102;2022-08-05T06:33:12;24.60;;;12.75;;
10801;SDS011;5453;50.852;7.102;2022-08-05T06:35:45;23.73;;;12.52;;
10801;SDS011;5453;50.852;7.102;2022-08-05T06:38:17;21.98;;;11.75;;
10801;SDS011;5453;50.852;7.102;2022-08-05T06:40:49;20.20;;;11.27;;
10801;SDS011;5453;50.852;7.102;2022-08-05T06:43:21;20.88;;;11.80;;
10801;SDS011;5453;50.852;7.102;2022-08-05T06:45:53;25.25;;;12.55;;
10801;SDS011;5453;50.852;7.102;2022-08-05T06:48:25;22.38;;;13.00;;
10801;SDS011;5453;50.852;7.102;2022-08-05T06:50:59;27.83;;;14.25;;
10801;SDS011;5453;50.852;7.102;2022-08-05T06:53:33;30.83;;;15.35;;
10801;SDS011;5453;50.852;7.102;2022-08-05T06:56:05;29.73;;;15.60;;
10801;SDS011;5453;50.852;7.102;2022-08-05T06:58:38;29.65;;;16.55;;
10801;SDS011;5453;50.852;7.102;2022-08-05T07:01:10;31.40;;;15.82;;
10801;SDS011;5453;50.852;7.102;2022-08-05T07:03:42;27.70;;;15.98;;
10801;SDS011;5453;50.852;7.102;2022-08-05T07:06:15;26.20;;;14.32;;
10801;SDS011;5453;50.852;7.102;2022-08-05T07:08:48;24.80;;;13.73;;
10801;SDS011;5453;50.852;7.102;2022-08-05T07:11:20;23.85;;;12.27;;
10801;SDS011;5453;50.852;7.102;2022-08-05T07:13:52;23.02;;;11.98;;
10801;SDS011;5453;50.852;7.102;2022-08-05T07:16:42;20.23;;;11.70;;
10801;SDS011;5453;50.852;7.102;2022-08-05T07:19:20;20.35;;;11.98;;
10801;SDS011;5453;50.852;7.102;2022-08-05T07:21:54;23.38;;;14.52;;
10801;SDS011;5453;50.852;7.102;2022-08-05T07:24:26;26.85;;;14.65;;
10801;SDS011;5453;50.852;7.102;2022-08-05T07:26:58;25.92;;;14.73;;
10801;SDS011;5453;50.852;7.102;2022-08-05T07:29:30;26.15;;;14.55;;
10801;SDS011;5453;50.852;7.102;2022-08-05T07:32:03;24.83;;;14.43;;
10801;SDS011;5453;50.852;7.102;2022-08-05T07:34:36;27.98;;;14.10;;
10801;SDS011;5453;50.852;7.102;2022-08-05T07:37:10;29.08;;;15.35;;
10801;SDS011;5453;50.852;7.102;2022-08-05T07:39:42;30.30;;;15.45;;
10801;SDS011;5453;50.852;7.102;2022-08-05T07:42:14;33.08;;;17.27;;
10801;SDS011;5453;50.852;7.102;2022-08-05T07:44:46;34.47;;;18.65;;
10801;SDS011;5453;50.852;7.102;2022-08-05T07:47:18;31.63;;;16.75;;
10801;SDS011;5453;50.852;7.102;2022-08-05T07:49:50;42.63;;;21.95;;
10801;SDS011;5453;50.852;7.102;2022-08-05T07:52:24;36.35;;;18.10;;
10801;SDS011;5453;50.852;7.102;2022-08-05T07:54:56;33.78;;;18.38;;
10801;SDS011;5453;50.852;7.102;2022-08-05T07:57:28;36.65;;;18.60;;
10801;SDS011;5453;50.852;7.102;2022-08-05T08:00:00;35.90;;;18.17;;
10801;SDS011;5453;50.852;7.102;2022-08-05T08:02:42;38.30;;;18.63;;
10801;SDS011;5453;50.852;7.102;2022-08-05T08:05:14;38.75;;;18.65;;
10801;SDS011;5453;50.852;7.102;2022-08-05T08:07:48;33.10;;;16.83;;
10801;SDS011;5453;50.852;7.102;2022-08-05T08:10:20;36.80;;;19.92;;
10801;SDS011;5453;50.852;7.102;2022-08-05T08:12:52;35.45;;;18.20;;
10801;SDS011;5453;50.852;7.102;2022-08-05T08:15:25;35.72;;;17.83;;
10801;SDS011;5453;50.852;7.102;2022-08-05T08:17:57;37.15;;;18.42;;
10801;SDS011;5453;50.852;7.102;2022-08-05T08:20:29;35.92;;;17.48;;
10801;SDS011;5453;50.852;7.102;2022-08-05T08:23:02;39.28;;;19.05;;
10801;SDS011;5453;50.852;7.102;2022-08-05T08:25:36;43.90;;;19.88;;
10801;SDS011;5453;50.852;7.102;2022-08-05T08:28:08;38.20;;;19.83;;
10801;SDS011;5453;50.852;7.102;2022-08-05T08:30:40;38.33;;;19.13;;
10801;SDS011;5453;50.852;7.102;2022-08-05T08:33:12;37.05;;;18.35;;
10801;SDS011;5453;50.852;7.102;2022-08-05T08:35:44;43.80;;;19.73;;
10801;SDS011;5453;50.852;7.102;2022-08-05T08:38:18;39.80;;;19.10;;
10801;SDS011;5453;50.852;7.102;2022-08-05T08:40:50;38.60;;;19.17;;
10801;SDS011;5453;50.852;7.102;2022-08-05T08:43:22;39.65;;;19.88;;
10801;SDS011;5453;50.852;7.102;2022-08-05T08:45:56;37.55;;;18.15;;
10801;SDS011;5453;50.852;7.102;2022-08-05T08:48:29;33.55;;;16.63;;
10801;SDS011;5453;50.852;7.102;2022-08-05T08:51:03;35.08;;;17.27;;
10801;SDS011;5453;50.852;7.102;2022-08-05T08:53:37;37.25;;;16.83;;
10801;SDS011;5453;50.852;7.102;2022-08-05T08:58:42;35.63;;;17.00;;
10801;SDS011;5453;50.852;7.102;2022-08-05T09:01:14;36.28;;;16.08;;
10801;SDS011;5453;50.852;7.102;2022-08-05T09:03:48;35.33;;;16.77;;
10801;SDS011;5453;50.852;7.102;2022-08-05T09:06:24;32.22;;;15.57;;
10801;SDS011;5453;50.852;7.102;2022-08-05T09:09:00;32.15;;;15.23;;
10801;SDS011;5453;50.852;7.102;2022-08-05T09:11:33;31.08;;;14.98;;
10801;SDS011;5453;50.852;7.102;2022-08-05T09:14:06;28.00;;;13.88;;
10801;SDS011;5453;50.852;7.102;2022-08-05T09:16:39;28.58;;;14.25;;
10801;SDS011;5453;50.852;7.102;2022-08-05T09:19:11;25.23;;;13.13;;
10801;SDS011;5453;50.852;7.102;2022-08-05T09:21:43;25.08;;;13.70;;
10801;SDS011;5453;50.852;7.102;2022-08-05T09:24:16;24.83;;;13.85;;
10801;SDS011;5453;50.852;7.102;2022-08-05T09:26:49;27.88;;;15.32;;
10801;SDS011;5453;50.852;7.102;2022-08-05T09:29:36;25.67;;;14.98;;
10801;SDS011;5453;50.852;7.102;2022-08-05T09:32:11;27.42;;;15.00;;
10801;SDS011;5453;50.852;7.102;2022-08-05T09:34:47;26.35;;;15.00;;
10801;SDS011;5453;50.852;7.102;2022-08-05T09:37:21;22.83;;;13.02;;
10801;SDS011;5453;50.852;7.102;2022-08-05T09:39:56;24.88;;;14.57;;
10801;SDS011;5453;50.852;7.102;2022-08-05T09:42:37;23.20;;;13.55;;
10801;SDS011;5453;50.852;7.102;2022-08-05T09:45:10;23.05;;;13.55;;
10801;SDS011;5453;50.852;7.102;2022-08-05T09:47:42;23.50;;;13.68;;
10801;SDS011;5453;50.852;7.102;2022-08-05T09:50:17;21.58;;;12.25;;
10801;SDS011;5453;50.852;7.102;2022-08-05T09:52:52;21.80;;;12.48;;
10801;SDS011;5453;50.852;7.102;2022-08-05T09:55:35;19.92;;;11.88;;
10801;SDS011;5453;50.852;7.102;2022-08-05T09:58:10;20.08;;;11.43;;
10801;SDS011;5453;50.852;7.102;2022-08-05T10:00:51;17.20;;;10.02;;
10801;SDS011;5453;50.852;7.102;2022-08-05T10:03:26;15.25;;;9.20;;
10801;SDS011;5453;50.852;7.102;2022-08-05T10:06:00;18.88;;;9.77;;
10801;SDS011;5453;50.852;7.102;2022-08-05T10:08:35;14.25;;;9.10;;
10801;SDS011;5453;50.852;7.102;2022-08-05T10:11:13;14.02;;;9.02;;
10801;SDS011;5453;50.852;7.102;2022-08-05T10:13:47;17.17;;;9.75;;
10801;SDS011;5453;50.852;7.102;2022-08-05T10:16:29;16.20;;;9.90;;
10801;SDS011;5453;50.852;7.102;2022-08-05T10:19:04;15.40;;;10.60;;
10801;SDS011;5453;50.852;7.102;2022-08-05T10:21:36;19.77;;;11.65;;
10801;SDS011;5453;50.852;7.102;2022-08-05T10:24:08;17.70;;;10.75;;
10801;SDS011;5453;50.852;7.102;2022-08-05T10:26:44;16.60;;;11.27;;
10801;SDS011;5453;50.852;7.102;2022-08-05T10:29:21;13.77;;;9.18;;
10801;SDS011;5453;50.852;7.102;2022-08-05T10:31:53;11.32;;;7.53;;
10801;SDS011;5453;50.852;7.102;2022-08-05T10:34:26;9.98;;;7.03;;
10801;SDS011;5453;50.852;7.102;2022-08-05T10:36:58;9.18;;;6.70;;
10801;SDS011;5453;50.852;7.102;2022-08-05T10:39:34;8.75;;;5.07;;
10801;SDS011;5453;50.852;7.102;2022-08-05T10:42:10;6.72;;;4.50;;
10801;SDS011;5453;50.852;7.102;2022-08-05T10:44:46;8.05;;;4.45;;
10801;SDS011;5453;50.852;7.102;2022-08-05T10:47:19;6.82;;;4.45;;
10801;SDS011;5453;50.852;7.102;2022-08-05T10:50:03;7.22;;;3.95;;
10801;SDS011;5453;50.852;7.102;2022-08-05T10:52:43;6.13;;;3.70;;
10801;SDS011;5453;50.852;7.102;2022-08-05T10:55:21;5.40;;;3.50;;
10801;SDS011;5453;50.852;7.102;2022-08-05T10:58:06;5.03;;;3.03;;
10801;SDS011;5453;50.852;7.102;2022-08-05T11:00:44;4.90;;;3.08;;
10801;SDS011;5453;50.852;7.102;2022-08-05T11:03:18;4.40;;;2.60;;
10801;SDS011;5453;50.852;7.102;2022-08-05T11:06:04;4.10;;;2.75;;
10801;SDS011;5453;50.852;7.102;2022-08-05T11:08:43;3.65;;;2.63;;
10801;SDS011;5453;50.852;7.102;2022-08-05T11:11:49;5.05;;;2.97;;
10801;SDS011;5453;50.852;7.102;2022-08-05T11:14:25;4.75;;;2.50;;
10801;SDS011;5453;50.852;7.102;2022-08-05T11:20:04;4.43;;;2.53;;
10801;SDS011;5453;50.852;7.102;2022-08-05T11:22:40;3.75;;;2.40;;
10801;SDS011;5453;50.852;7.102;2022-08-05T11:25:26;5.35;;;2.47;;
10801;SDS011;5453;50.852;7.102;2022-08-05T11:31:19;4.82;;;2.50;;
10801;SDS011;5453;50.852;7.102;2022-08-05T11:34:02;4.38;;;2.35;;
10801;SDS011;5453;50.852;7.102;2022-08-05T11:36:37;4.50;;;2.35;;
10801;SDS011;5453;50.852;7.102;2022-08-05T11:39:16;3.95;;;2.20;;
10801;SDS011;5453;50.852;7.102;2022-08-05T11:42:22;4.60;;;2.38;;
10801;SDS011;5453;50.852;7.102;2022-08-05T11:44:59;3.50;;;2.53;;
10801;SDS011;5453;50.852;7.102;2022-08-05T11:47:36;4.90;;;2.47;;
10801;SDS011;5453;50.852;7.102;2022-08-05T11:50:08;4.00;;;2.17;;
10801;SDS011;5453;50.852;7.102;2022-08-05T11:52:40;4.40;;;1.90;;
10801;SDS011;5453;50.852;7.102;2022-08-05T11:55:12;5.25;;;2.20;;
10801;SDS011;5453;50.852;7.102;2022-08-05T11:57:44;2.58;;;1.50;;
10801;SDS011;5453;50.852;7.102;2022-08-05T12:03:18;6.43;;;1.80;;
10801;SDS011;5453;50.852;7.102;2022-08-05T12:05:51;3.50;;;1.58;;
10801;SDS011;5453;50.852;7.102;2022-08-05T12:08:23;3.72;;;1.90;;
10801;SDS011;5453;50.852;7.102;2022-08-05T12:10:56;2.97;;;1.80;;
10801;SDS011;5453;50.852;7.102;2022-08-05T12:13:30;3.55;;;1.45;;
10801;SDS011;5453;50.852;7.102;2022-08-05T12:16:03;2.72;;;1.77;;
10801;SDS011;5453;50.852;7.102;2022-08-05T12:18:38;3.42;;;1.80;;
10801;SDS011;5453;50.852;7.102;2022-08-05T12:21:12;4.63;;;2.45;;
10801;SDS011;5453;50.852;7.102;2022-08-05T12:23:53;2.10;;;1.73;;
10801;SDS011;5453;50.852;7.102;2022-08-05T12:26:29;3.08;;;1.73;;
10801;SDS011;5453;50.852;7.102;2022-08-05T12:29:02;2.88;;;1.88;;
10801;SDS011;5453;50.852;7.102;2022-08-05T12:31:36;3.30;;;1.85;;
10801;SDS011;5453;50.852;7.102;2022-08-05T12:34:09;4.13;;;1.90;;
10801;SDS011;5453;50.852;7.102;2022-08-05T12:36:42;2.92;;;1.92;;
10801;SDS011;5453;50.852;7.102;2022-08-05T12:39:16;2.53;;;1.50;;
10801;SDS011;5453;50.852;7.102;2022-08-05T12:41:48;2.80;;;1.90;;
10801;SDS011;5453;50.852;7.102;2022-08-05T12:44:20;2.95;;;1.95;;
10801;SDS011;5453;50.852;7.102;2022-08-05T12:46:53;3.45;;;2.30;;
10801;SDS011;5453;50.852;7.102;2022-08-05T12:49:37;3.95;;;2.20;;
10801;SDS011;5453;50.852;7.102;2022-08-05T12:52:10;2.60;;;1.60;;
10801;SDS011;5453;50.852;7.102;2022-08-05T12:54:45;5.13;;;2.00;;
10801;SDS011;5453;50.852;7.102;2022-08-05T12:57:17;2.08;;;1.83;;
10801;SDS011;5453;50.852;7.102;2022-08-05T12:59:50;2.63;;;1.63;;
10801;SDS011;5453;50.852;7.102;2022-08-05T13:02:24;2.42;;;1.50;;
10801;SDS011;5453;50.852;7.102;2022-08-05T13:04:59;1.45;;;1.35;;
10801;SDS011;5453;50.852;7.102;2022-08-05T13:07:31;3.33;;;2.03;;
10801;SDS011;5453;50.852;7.102;2022-08-05T13:10:03;3.45;;;1.55;;
10801;SDS011;5453;50.852;7.102;2022-08-05T13:12:43;2.30;;;1.55;;
10801;SDS011;5453;50.852;7.102;2022-08-05T13:15:15;1.98;;;1.52;;
10801;SDS011;5453;50.852;7.102;2022-08-05T13:17:52;1.73;;;1.40;;
10801;SDS011;5453;50.852;7.102;2022-08-05T13:20:33;3.25;;;1.70;;
10801;SDS011;5453;50.852;7.102;2022-08-05T13:23:05;2.45;;;1.48;;
10801;SDS011;5453;50.852;7.102;2022-08-05T13:25:38;1.85;;;1.55;;
10801;SDS011;5453;50.852;7.102;2022-08-05T13:28:10;2.08;;;1.58;;
10801;SDS011;5453;50.852;7.102;2022-08-05T13:30:43;2.80;;;1.70;;
10801;SDS011;5453;50.852;7.102;2022-08-05T13:33:15;3.92;;;1.83;;
10801;SDS011;5453;50.852;7.102;2022-08-05T13:38:26;2.35;;;1.73;;
10801;SDS011;5453;50.852;7.102;2022-08-05T13:40:58;2.72;;;1.70;;
10801;SDS011;5453;50.852;7.102;2022-08-05T13:43:30;2.42;;;1.90;;
10801;SDS011;5453;50.852;7.102;2022-08-05T13:46:03;5.10;;;1.98;;
10801;SDS011;5453;50.852;7.102;2022-08-05T13:48:35;2.83;;;2.10;;
10801;SDS011;5453;50.852;7.102;2022-08-05T13:51:08;1.90;;;1.80;;
10801;SDS011;5453;50.852;7.102;2022-08-05T13:53:44;2.05;;;1.70;;
10801;SDS011;5453;50.852;7.102;2022-08-05T13:56:16;3.13;;;2.22;;
10801;SDS011;5453;50.852;7.102;2022-08-05T13:58:48;2.42;;;1.92;;
10801;SDS011;5453;50.852;7.102;2022-08-05T14:01:20;3.10;;;2.22;;
10801;SDS011;5453;50.852;7.102;2022-08-05T14:03:53;2.50;;;2.13;;
10801;SDS011;5453;50.852;7.102;2022-08-05T14:06:42;4.93;;;3.15;;
10801;SDS011;5453;50.852;7.102;2022-08-05T14:09:16;4.07;;;2.50;;
10801;SDS011;5453;50.852;7.102;2022-08-05T14:11:48;3.95;;;2.58;;
10801;SDS011;5453;50.852;7.102;2022-08-05T14:14:20;4.47;;;3.53;;
10801;SDS011;5453;50.852;7.102;2022-08-05T14:16:52;3.58;;;2.70;;
10801;SDS011;5453;50.852;7.102;2022-08-05T14:19:24;4.47;;;2.95;;
10801;SDS011;5453;50.852;7.102;2022-08-05T14:21:57;4.13;;;3.13;;
10801;SDS011;5453;50.852;7.102;2022-08-05T14:24:31;5.00;;;3.20;;
10801;SDS011;5453;50.852;7.102;2022-08-05T14:27:03;3.90;;;3.00;;
10801;SDS011;5453;50.852;7.102;2022-08-05T14:29:36;3.20;;;2.90;;
10801;SDS011;5453;50.852;7.102;2022-08-05T14:32:08;5.38;;;3.20;;
10801;SDS011;5453;50.852;7.102;2022-08-05T14:34:41;3.50;;;2.83;;
10801;SDS011;5453;50.852;7.102;2022-08-05T14:37:13;5.22;;;3.05;;
10801;SDS011;5453;50.852;7.102;2022-08-05T14:39:47;3.85;;;2.85;;
10801;SDS011;5453;50.852;7.102;2022-08-05T14:42:19;3.78;;;2.90;;
10801;SDS011;5453;50.852;7.102;2022-08-05T14:44:52;4.65;;;3.17;;
10801;SDS011;5453;50.852;7.102;2022-08-05T14:47:24;5.20;;;2.97;;
10801;SDS011;5453;50.852;7.102;2022-08-05T14:49:57;4.80;;;3.10;;
10801;SDS011;5453;50.852;7.102;2022-08-05T14:52:29;3.47;;;2.75;;
10801;SDS011;5453;50.852;7.102;2022-08-05T14:55:03;3.95;;;2.90;;
10801;SDS011;5453;50.852;7.102;2022-08-05T14:57:36;4.72;;;2.60;;
10801;SDS011;5453;50.852;7.102;2022-08-05T15:00:09;4.57;;;2.72;;
10801;SDS011;5453;50.852;7.102;2022-08-05T15:02:42;4.57;;;2.70;;
10801;SDS011;5453;50.852;7.102;2022-08-05T15:05:14;4.55;;;3.13;;
10801;SDS011;5453;50.852;7.102;2022-08-05T15:07:46;5.07;;;3.00;;
10801;SDS011;5453;50.852;7.102;2022-08-05T15:10:20;4.60;;;3.30;;
10801;SDS011;5453;50.852;7.102;2022-08-05T15:12:52;3.03;;;2.72;;
10801;SDS011;5453;50.852;7.102;2022-08-05T15:15:25;5.78;;;2.70;;
10801;SDS011;5453;50.852;7.102;2022-08-05T15:17:57;4.78;;;2.95;;
10801;SDS011;5453;50.852;7.102;2022-08-05T15:20:29;3.33;;;2.40;;
10801;SDS011;5453;50.852;7.102;2022-08-05T15:23:02;3.83;;;2.63;;
10801;SDS011;5453;50.852;7.102;2022-08-05T15:25:36;3.80;;;2.05;;
10801;SDS011;5453;50.852;7.102;2022-08-05T15:28:10;3.03;;;1.98;;
10801;SDS011;5453;50.852;7.102;2022-08-05T15:30:43;2.60;;;2.40;;
10801;SDS011;5453;50.852;7.102;2022-08-05T15:33:16;2.42;;;1.95;;
10801;SDS011;5453;50.852;7.102;2022-08-05T15:35:48;2.83;;;2.30;;
10801;SDS011;5453;50.852;7.102;2022-08-05T15:38:20;2.40;;;2.20;;
10801;SDS011;5453;50.852;7.102;2022-08-05T15:40:53;3.03;;;1.75;;
10801;SDS011;5453;50.852;7.102;2022-08-05T15:43:26;2.65;;;2.00;;
10801;SDS011;5453;50.852;7.102;2022-08-05T15:45:58;3.72;;;1.80;;
10801;SDS011;5453;50.852;7.102;2022-08-05T15:48:30;2.17;;;1.92;;
10801;SDS011;5453;50.852;7.102;2022-08-05T15:51:02;2.80;;;1.70;;
10801;SDS011;5453;50.852;7.102;2022-08-05T15:53:36;2.83;;;2.03;;
10801;SDS011;5453;50.852;7.102;2022-08-05T15:56:09;3.30;;;2.00;;
10801;SDS011;5453;50.852;7.102;2022-08-05T15:58:41;2.47;;;1.83;;
10801;SDS011;5453;50.852;7.102;2022-08-05T16:01:13;2.17;;;1.98;;
10801;SDS011;5453;50.852;7.102;2022-08-05T16:03:47;3.28;;;1.95;;